createdAt,value
2023-08-17T00:02:40.003Z,12.40
2023-08-17T00:05:46.077Z,14.40
2023-08-17T00:08:52.561Z,14.40
2023-08-17T00:11:58.891Z,14.40
2023-08-17T00:15:06.245Z,15.30
2023-08-17T00:18:12.932Z,16.50
2023-08-17T00:21:19.048Z,13.00
2023-08-17T00:24:25.444Z,13.70
2023-08-17T00:27:32.195Z,14.60
2023-08-17T00:30:38.975Z,14.40
2023-08-17T00:33:45.419Z,15.20
2023-08-17T00:36:51.759Z,14.10
2023-08-17T00:39:57.889Z,12.20
2023-08-17T00:43:04.641Z,15.20
2023-08-17T00:46:11.760Z,13.40
2023-08-17T00:49:18.238Z,13.40
2023-08-17T00:52:24.886Z,13.10
2023-08-17T00:55:31.374Z,14.50
2023-08-17T00:58:37.494Z,13.40
2023-08-17T01:01:43.825Z,12.90
2023-08-17T01:04:50.895Z,14.60
2023-08-17T01:07:57.383Z,13.70
2023-08-17T01:11:11.490Z,13.80
2023-08-17T01:14:21.674Z,14.50
2023-08-17T01:17:31.524Z,16.30
2023-08-17T01:20:38.307Z,14.30
2023-08-17T01:23:44.568Z,13.20
2023-08-17T01:26:50.912Z,14.30
2023-08-17T01:29:57.061Z,14.80
2023-08-17T01:33:08.928Z,13.50
2023-08-17T01:36:22.556Z,14.90
2023-08-17T01:39:33.580Z,14.50
2023-08-17T01:42:41.119Z,13.80
2023-08-17T01:45:47.751Z,17.00
2023-08-17T01:48:54.107Z,13.50
2023-08-17T01:52:00.229Z,13.90
2023-08-17T01:55:07.797Z,13.30
2023-08-17T01:58:13.990Z,12.80
2023-08-17T02:01:20.307Z,13.60
2023-08-17T02:04:26.618Z,13.90
2023-08-17T02:07:32.810Z,14.00
2023-08-17T02:10:39.208Z,14.60
2023-08-17T02:13:45.538Z,12.90
2023-08-17T02:16:51.912Z,13.20
2023-08-17T02:19:58.144Z,14.80
2023-08-17T02:23:05.758Z,14.00
2023-08-17T02:26:11.894Z,14.50
2023-08-17T02:29:18.872Z,12.40
2023-08-17T02:32:25.030Z,17.10
2023-08-17T02:35:32.038Z,15.70
2023-08-17T02:38:38.217Z,15.40
2023-08-17T02:41:45.972Z,15.60
2023-08-17T02:44:52.196Z,14.40
2023-08-17T02:47:58.907Z,15.10
2023-08-17T02:51:05.585Z,16.40
2023-08-17T02:54:12.027Z,15.40
2023-08-17T02:57:19.111Z,14.80
2023-08-17T03:00:25.658Z,14.60
2023-08-17T03:03:31.880Z,12.20
2023-08-17T03:06:38.057Z,14.20
2023-08-17T03:09:44.202Z,14.20
2023-08-17T03:12:50.529Z,16.60
2023-08-17T03:15:58.182Z,23.90
2023-08-17T03:19:05.613Z,13.20
2023-08-17T03:22:11.594Z,13.90
2023-08-17T03:25:21.704Z,16.70
2023-08-17T03:28:28.112Z,16.10
2023-08-17T03:31:34.773Z,19.10
2023-08-17T03:34:40.875Z,18.30
2023-08-17T03:37:47.494Z,18.40
2023-08-17T03:40:53.742Z,17.50
2023-08-17T03:44:00.176Z,15.70
2023-08-17T03:47:09.587Z,16.90
2023-08-17T03:50:15.912Z,14.70
2023-08-17T03:53:22.051Z,16.50
2023-08-17T03:56:29.007Z,16.30
2023-08-17T03:59:35.113Z,15.30
2023-08-17T04:02:41.513Z,16.70
2023-08-17T04:05:48.436Z,16.60
2023-08-17T04:08:54.954Z,15.00
2023-08-17T04:12:00.956Z,18.70
2023-08-17T04:15:08.412Z,18.00
2023-08-17T04:18:14.611Z,15.30
2023-08-17T04:21:21.593Z,16.50
2023-08-17T04:24:27.996Z,15.70
2023-08-17T04:27:34.702Z,15.90
2023-08-17T04:30:41.377Z,13.50
2023-08-17T04:33:47.886Z,14.90
2023-08-17T04:36:54.423Z,15.50
2023-08-17T04:40:00.838Z,14.60
2023-08-17T04:43:07.393Z,16.20
2023-08-17T04:46:13.669Z,14.60
2023-08-17T04:49:19.895Z,17.10
2023-08-17T04:52:26.099Z,15.20
2023-08-17T04:55:33.184Z,16.30
2023-08-17T04:58:39.524Z,15.70
2023-08-17T05:01:45.946Z,16.30
2023-08-17T05:04:52.299Z,15.70
2023-08-17T05:07:58.883Z,14.10
2023-08-17T05:11:07.385Z,15.20
2023-08-17T05:14:13.531Z,14.80
2023-08-17T05:17:20.095Z,14.60
2023-08-17T05:20:26.072Z,14.00
2023-08-17T05:23:32.344Z,13.70
2023-08-17T05:26:38.575Z,12.10
2023-08-17T05:29:44.882Z,11.40
2023-08-17T05:32:50.921Z,11.80
2023-08-17T05:35:59.144Z,13.60
2023-08-17T05:39:06.144Z,12.50
2023-08-17T05:42:12.360Z,11.60
2023-08-17T05:45:18.789Z,13.40
2023-08-17T05:48:25.744Z,13.20
2023-08-17T05:51:31.833Z,12.00
2023-08-17T05:54:37.950Z,13.30
2023-08-17T05:57:44.301Z,12.60
2023-08-17T06:00:50.808Z,14.10
2023-08-17T06:03:57.346Z,13.00
2023-08-17T06:07:04.291Z,12.30
2023-08-17T06:10:11.974Z,15.20
2023-08-17T06:13:18.641Z,14.80
2023-08-17T06:16:24.980Z,11.80
2023-08-17T06:19:31.449Z,12.90
2023-08-17T06:22:39.190Z,14.80
2023-08-17T06:25:45.412Z,12.80
2023-08-17T06:28:51.544Z,12.80
2023-08-17T06:31:58.176Z,12.30
2023-08-17T06:35:04.578Z,12.30
2023-08-17T06:38:10.949Z,10.50
2023-08-17T06:41:17.201Z,11.50
2023-08-17T06:44:23.680Z,10.30
2023-08-17T06:47:30.294Z,11.40
2023-08-17T06:50:36.816Z,11.60
2023-08-17T06:53:43.493Z,11.70
2023-08-17T06:56:49.735Z,9.80
2023-08-17T06:59:56.573Z,11.70
2023-08-17T07:03:03.422Z,11.30
2023-08-17T07:06:10.029Z,10.10
2023-08-17T07:09:16.699Z,10.10
2023-08-17T07:12:22.951Z,9.80
2023-08-17T07:15:29.575Z,10.00
2023-08-17T07:18:36.300Z,9.50
2023-08-17T07:21:42.921Z,11.40
2023-08-17T07:24:49.135Z,11.20
2023-08-17T07:27:55.459Z,9.90
2023-08-17T07:31:01.707Z,9.50
2023-08-17T07:34:09.108Z,12.50
2023-08-17T07:37:16.164Z,12.10
2023-08-17T07:40:22.978Z,9.40
2023-08-17T07:43:29.488Z,12.10
2023-08-17T07:46:35.942Z,11.10
2023-08-17T07:49:42.250Z,10.20
2023-08-17T07:52:48.536Z,9.90
2023-08-17T07:55:56.205Z,10.00
2023-08-17T07:59:04.379Z,8.30
2023-08-17T08:02:11.026Z,9.60
2023-08-17T08:05:18.087Z,11.50
2023-08-17T08:08:24.314Z,10.20
2023-08-17T08:11:32.026Z,10.90
2023-08-17T08:14:38.391Z,9.50
2023-08-17T08:17:44.721Z,10.40
2023-08-17T08:20:50.872Z,11.50
2023-08-17T08:23:57.297Z,10.20
2023-08-17T08:27:04.194Z,12.80
2023-08-17T08:30:11.741Z,12.70
2023-08-17T08:33:18.004Z,11.40
2023-08-17T08:36:24.510Z,11.80
2023-08-17T08:39:30.902Z,12.30
2023-08-17T08:42:37.229Z,14.20
2023-08-17T08:45:46.152Z,12.00
2023-08-17T08:48:54.679Z,12.80
2023-08-17T08:52:02.194Z,13.20
2023-08-17T08:55:17.088Z,12.50
2023-08-17T08:58:25.137Z,11.60
2023-08-17T09:01:33.058Z,10.80
2023-08-17T09:04:40.066Z,12.30
2023-08-17T09:07:47.168Z,11.10
2023-08-17T09:10:53.510Z,12.00
2023-08-17T09:14:00.046Z,11.60
2023-08-17T09:17:07.220Z,10.70
2023-08-17T09:20:15.464Z,12.40
2023-08-17T09:23:23.587Z,11.20
2023-08-17T09:26:34.978Z,11.70
2023-08-17T09:29:42.234Z,12.70
2023-08-17T09:32:51.807Z,11.80
2023-08-17T09:36:00.578Z,12.10
2023-08-17T09:42:23.813Z,10.60
2023-08-17T09:48:37.214Z,12.00
2023-08-17T09:51:46.160Z,12.10
2023-08-17T09:54:53.275Z,11.40
2023-08-17T09:58:00.252Z,11.20
2023-08-17T10:01:06.239Z,10.60
2023-08-17T10:04:13.166Z,8.60
2023-08-17T10:07:20.321Z,7.80
2023-08-17T10:10:29.751Z,7.90
2023-08-17T10:13:39.906Z,9.20
2023-08-17T10:16:48.378Z,8.90
2023-08-17T10:19:57.091Z,7.30
2023-08-17T10:23:06.404Z,7.90
2023-08-17T10:26:12.665Z,8.20
2023-08-17T10:29:19.010Z,7.60
2023-08-17T10:32:27.467Z,7.70
2023-08-17T10:35:34.900Z,7.60
2023-08-17T10:38:41.059Z,7.00
2023-08-17T10:41:51.460Z,7.60
2023-08-17T10:44:58.911Z,8.50
2023-08-17T10:48:30.400Z,8.60
2023-08-17T10:51:37.049Z,8.30
2023-08-17T10:54:44.009Z,8.40
2023-08-17T10:57:50.412Z,9.20
2023-08-17T11:00:59.711Z,9.20
2023-08-17T11:04:18.045Z,8.30
2023-08-17T11:07:26.958Z,8.20
2023-08-17T11:10:34.467Z,8.30
2023-08-17T11:13:42.262Z,8.40
2023-08-17T11:16:50.582Z,8.20
2023-08-17T11:19:57.159Z,8.20
2023-08-17T11:26:09.486Z,7.50
2023-08-17T11:29:15.660Z,7.10
2023-08-17T11:32:21.841Z,7.90
2023-08-17T11:35:27.990Z,7.10
2023-08-17T11:38:35.942Z,8.10
2023-08-17T11:41:42.489Z,8.30
2023-08-17T11:44:48.778Z,7.20
2023-08-17T11:47:55.423Z,6.90
2023-08-17T11:51:01.807Z,8.30
2023-08-17T11:54:10.959Z,7.10
2023-08-17T11:57:18.543Z,8.30
2023-08-17T12:00:26.929Z,7.50
2023-08-17T12:03:33.341Z,8.60
2023-08-17T12:06:39.845Z,8.50
2023-08-17T12:09:46.452Z,9.50
2023-08-17T12:12:52.790Z,7.30
2023-08-17T12:16:00.247Z,7.60
2023-08-17T12:19:06.513Z,8.40
2023-08-17T12:22:13.177Z,7.80
2023-08-17T12:25:19.779Z,7.40
2023-08-17T12:28:26.080Z,9.30
2023-08-17T12:31:33.400Z,8.60
2023-08-17T12:34:39.735Z,7.90
2023-08-17T12:37:45.772Z,8.90
2023-08-17T12:40:51.968Z,7.90
2023-08-17T12:44:00.157Z,7.70
2023-08-17T12:47:06.891Z,8.10
2023-08-17T12:50:13.675Z,8.20
2023-08-17T12:53:20.156Z,8.50
2023-08-17T12:56:26.281Z,7.40
2023-08-17T12:59:32.811Z,7.80
2023-08-17T13:02:39.079Z,7.50
2023-08-17T13:05:45.869Z,7.40
2023-08-17T13:08:52.784Z,9.10
2023-08-17T13:11:59.246Z,7.00
2023-08-17T13:15:06.413Z,8.00
2023-08-17T13:18:13.105Z,8.30
2023-08-17T13:21:20.981Z,8.70
2023-08-17T13:24:27.314Z,9.00
2023-08-17T13:27:33.525Z,7.60
2023-08-17T13:30:40.618Z,8.50
2023-08-17T13:33:47.144Z,7.40
2023-08-17T13:36:53.416Z,7.50
2023-08-17T13:40:01.613Z,7.70
2023-08-17T13:43:13.259Z,7.70
2023-08-17T13:46:19.705Z,10.80
2023-08-17T13:49:26.123Z,8.30
2023-08-17T13:52:32.871Z,8.10
2023-08-17T13:55:39.498Z,7.60
2023-08-17T13:58:46.518Z,10.30
2023-08-17T14:01:53.307Z,8.30
2023-08-17T14:05:00.984Z,7.40
2023-08-17T14:08:08.895Z,9.40
2023-08-17T14:11:14.965Z,7.70
2023-08-17T14:14:21.947Z,7.40
2023-08-17T14:17:28.031Z,6.80
2023-08-17T14:20:34.239Z,7.50
2023-08-17T14:23:42.212Z,8.40
2023-08-17T14:26:49.106Z,8.80
2023-08-17T14:29:55.637Z,10.30
2023-08-17T14:33:02.313Z,9.40
2023-08-17T14:36:09.056Z,7.10
2023-08-17T14:39:15.917Z,9.50
2023-08-17T14:42:22.194Z,7.40
2023-08-17T14:45:28.246Z,7.40
2023-08-17T14:48:34.497Z,7.30
2023-08-17T14:51:44.062Z,10.20
2023-08-17T14:54:50.332Z,14.00
2023-08-17T15:01:09.486Z,20.00
2023-08-17T15:04:16.120Z,20.30
2023-08-17T15:07:22.270Z,12.70
2023-08-17T15:10:28.672Z,10.80
2023-08-17T15:13:35.125Z,10.60
2023-08-17T15:16:41.654Z,15.60
2023-08-17T15:19:47.947Z,9.20
2023-08-17T15:22:54.684Z,11.40
2023-08-17T15:26:01.042Z,11.10
2023-08-17T15:29:07.775Z,11.70
2023-08-17T15:32:13.777Z,12.20
2023-08-17T15:35:20.430Z,10.80
2023-08-17T15:38:26.889Z,10.80
2023-08-17T15:41:33.371Z,10.10
2023-08-17T15:44:39.693Z,10.10
2023-08-17T15:47:46.027Z,10.10
2023-08-17T15:50:52.259Z,10.10
2023-08-17T15:54:00.070Z,10.10
2023-08-17T15:57:07.486Z,9.20
2023-08-17T16:00:15.579Z,10.20
2023-08-17T16:03:26.930Z,9.30
2023-08-17T16:06:33.442Z,9.10
2023-08-17T16:09:41.025Z,10.30
2023-08-17T16:12:47.495Z,8.60
2023-08-17T16:15:54.446Z,9.80
2023-08-17T16:19:04.227Z,13.00
2023-08-17T16:22:11.000Z,10.70
2023-08-17T16:25:18.785Z,10.60
2023-08-17T16:28:25.071Z,11.50
2023-08-17T16:31:34.629Z,11.70
2023-08-17T16:34:41.204Z,10.40
2023-08-17T16:37:47.538Z,9.40
2023-08-17T16:40:53.765Z,9.60
2023-08-17T16:44:05.697Z,10.50
2023-08-17T16:47:12.375Z,10.50
2023-08-17T16:50:18.590Z,10.00
2023-08-17T16:53:24.819Z,12.10
2023-08-17T16:56:33.662Z,10.00
2023-08-17T16:59:39.903Z,11.20
2023-08-17T17:02:46.294Z,9.30
2023-08-17T17:05:52.723Z,11.90
2023-08-17T17:08:59.259Z,9.00
2023-08-17T17:12:08.125Z,10.90
2023-08-17T17:15:14.765Z,11.00
2023-08-17T17:18:20.923Z,11.30
2023-08-17T17:21:27.841Z,9.70
2023-08-17T17:24:34.080Z,10.70
2023-08-17T17:27:41.042Z,10.50
2023-08-17T17:30:47.321Z,11.60
2023-08-17T17:33:53.704Z,9.90
2023-08-17T17:36:59.732Z,9.90
2023-08-17T17:40:07.357Z,12.00
2023-08-17T17:43:13.676Z,11.60
2023-08-17T17:46:20.829Z,10.80
2023-08-17T17:49:26.831Z,9.90
2023-08-17T17:52:33.458Z,10.30
2023-08-17T17:55:39.659Z,11.30
2023-08-17T17:58:46.018Z,9.80
2023-08-17T18:01:52.349Z,12.90
2023-08-17T18:04:58.700Z,10.90
2023-08-17T18:08:05.153Z,10.90
2023-08-17T18:11:14.464Z,12.50
2023-08-17T18:14:20.644Z,10.90
2023-08-17T18:17:27.627Z,12.10
2023-08-17T18:20:34.400Z,10.20
2023-08-17T18:23:40.961Z,12.20
2023-08-17T18:26:47.269Z,11.40
2023-08-17T18:29:54.184Z,12.50
2023-08-17T18:33:00.623Z,11.50
2023-08-17T18:36:07.181Z,12.40
2023-08-17T18:39:13.602Z,12.40
2023-08-17T18:42:20.428Z,12.90
2023-08-17T18:45:26.760Z,12.00
2023-08-17T18:48:38.173Z,12.20
2023-08-17T18:51:44.426Z,12.40
2023-08-17T18:55:04.515Z,12.30
2023-08-17T18:58:10.624Z,11.10
2023-08-17T19:01:17.326Z,12.60
2023-08-17T19:04:23.930Z,10.70
2023-08-17T19:07:30.631Z,14.90
2023-08-17T19:10:36.998Z,13.40
2023-08-17T19:13:43.069Z,12.90
2023-08-17T19:16:49.321Z,12.40
2023-08-17T19:19:55.577Z,12.70
2023-08-17T19:23:01.818Z,12.50
2023-08-17T19:26:08.524Z,12.50
2023-08-17T19:29:14.676Z,13.00
2023-08-17T19:32:22.680Z,11.00
2023-08-17T19:35:29.277Z,11.90
2023-08-17T19:38:35.411Z,14.60
2023-08-17T19:41:43.782Z,12.30
2023-08-17T19:44:50.362Z,9.60
2023-08-17T19:47:56.656Z,13.40
2023-08-17T19:51:04.986Z,10.50
2023-08-17T19:54:11.583Z,12.30
2023-08-17T19:57:18.090Z,12.80
2023-08-17T20:00:24.260Z,10.70
2023-08-17T20:03:32.846Z,11.90
2023-08-17T20:06:39.452Z,12.30
2023-08-17T20:09:46.116Z,10.80
2023-08-17T20:12:52.182Z,10.60
2023-08-17T20:15:58.749Z,10.80
2023-08-17T20:19:05.414Z,11.80
2023-08-17T20:22:11.978Z,13.80
2023-08-17T20:25:18.422Z,13.20
2023-08-17T20:28:24.957Z,10.70
2023-08-17T20:31:31.123Z,12.00
2023-08-17T20:34:37.668Z,11.60
2023-08-17T20:37:45.279Z,12.30
2023-08-17T20:40:52.296Z,10.90
2023-08-17T20:43:58.451Z,11.50
2023-08-17T20:47:09.917Z,10.60
2023-08-17T20:50:16.397Z,11.50
2023-08-17T20:53:23.195Z,13.00
2023-08-17T20:56:29.437Z,11.90
2023-08-17T20:59:35.689Z,10.90
2023-08-17T21:02:41.808Z,10.10
2023-08-17T21:05:48.281Z,12.30
2023-08-17T21:08:54.785Z,11.90
2023-08-17T21:12:03.279Z,12.20
2023-08-17T21:15:12.251Z,11.60
2023-08-17T21:18:19.042Z,12.30
2023-08-17T21:21:25.404Z,13.40
2023-08-17T21:24:31.746Z,12.00
2023-08-17T21:27:37.955Z,10.70
2023-08-17T21:30:43.963Z,10.00
2023-08-17T21:33:50.577Z,11.70
2023-08-17T21:36:56.959Z,12.10
2023-08-17T21:40:03.836Z,11.70
2023-08-17T21:43:10.159Z,12.10
2023-08-17T21:46:16.526Z,15.20
2023-08-17T21:49:22.871Z,13.10
2023-08-17T21:52:28.891Z,10.20
2023-08-17T21:55:35.267Z,12.30
2023-08-17T21:58:42.893Z,11.30
2023-08-17T22:01:49.463Z,14.30
2023-08-17T22:04:55.557Z,13.90
2023-08-17T22:08:02.217Z,11.70
2023-08-17T22:11:08.955Z,10.70
2023-08-17T22:14:15.194Z,14.70
2023-08-17T22:17:22.864Z,13.60
2023-08-17T22:20:29.389Z,12.70
2023-08-17T22:23:35.714Z,12.50
2023-08-17T22:26:42.305Z,13.00
2023-08-17T22:29:48.612Z,13.80
2023-08-17T22:32:55.401Z,11.40
2023-08-17T22:36:02.059Z,10.80
2023-08-17T22:39:09.165Z,12.40
2023-08-17T22:42:15.233Z,10.70
2023-08-17T22:45:21.713Z,14.40
2023-08-17T22:48:28.102Z,11.80
2023-08-17T22:51:34.513Z,11.30
2023-08-17T22:54:40.616Z,14.90
2023-08-17T22:57:46.723Z,11.70
2023-08-17T23:00:55.138Z,12.80
2023-08-17T23:04:01.396Z,13.50
2023-08-17T23:07:07.953Z,10.50
2023-08-17T23:10:14.432Z,12.80
2023-08-17T23:13:20.669Z,11.90
2023-08-17T23:16:26.971Z,11.80
2023-08-17T23:19:33.372Z,11.50
2023-08-17T23:22:39.591Z,12.30
2023-08-17T23:25:45.865Z,11.30
2023-08-17T23:28:52.663Z,13.20
2023-08-17T23:32:03.928Z,12.00
2023-08-17T23:35:19.123Z,12.90
2023-08-17T23:38:25.366Z,12.10
2023-08-17T23:41:32.122Z,11.60
2023-08-17T23:44:38.196Z,11.90
2023-08-17T23:47:45.286Z,15.70
2023-08-17T23:50:51.548Z,12.70
2023-08-17T23:53:57.983Z,13.20
2023-08-17T23:57:05.149Z,15.20
